createdAt,value
2023-05-02T00:00:09.783Z,54.10
2023-05-02T00:02:37.737Z,46.72
2023-05-02T00:05:06.661Z,53.42
2023-05-02T00:07:35.428Z,62.37
2023-05-02T00:10:03.473Z,59.93
2023-05-02T00:12:32.631Z,68.97
2023-05-02T00:15:01.372Z,65.88
2023-05-02T00:17:29.228Z,70.97
2023-05-02T00:19:57.324Z,65.53
2023-05-02T00:22:25.770Z,65.55
2023-05-02T00:24:57.573Z,62.42
2023-05-02T00:27:25.973Z,67.97
2023-05-02T00:29:55.890Z,63.08
2023-05-02T00:32:23.734Z,57.75
2023-05-02T00:34:52.430Z,52.05
2023-05-02T00:37:20.529Z,52.33
2023-05-02T00:39:48.308Z,45.28
2023-05-02T00:42:16.719Z,48.97
2023-05-02T00:44:44.497Z,43.88
2023-05-02T00:47:13.797Z,49.72
2023-05-02T00:49:41.780Z,48.38
2023-05-02T00:52:09.653Z,45.10
2023-05-02T00:54:38.917Z,47.75
2023-05-02T00:57:07.278Z,51.97
2023-05-02T00:59:36.286Z,46.08
2023-05-02T01:02:24.646Z,46.47
2023-05-02T01:05:01.726Z,46.90
2023-05-02T01:10:47.511Z,47.35
2023-05-02T01:13:22.515Z,47.22
2023-05-02T01:15:52.235Z,49.15
2023-05-02T01:18:25.450Z,43.65
2023-05-02T01:21:00.144Z,43.55
2023-05-02T01:23:37.126Z,39.97
2023-05-02T01:26:16.908Z,44.72
2023-05-02T01:28:58.921Z,42.50
2023-05-02T01:31:28.324Z,43.92
2023-05-02T01:33:57.741Z,43.50
2023-05-02T01:36:28.522Z,40.72
2023-05-02T01:38:57.885Z,35.08
2023-05-02T01:41:29.011Z,42.08
2023-05-02T01:43:59.872Z,40.45
2023-05-02T01:46:29.562Z,41.63
2023-05-02T01:48:59.051Z,41.97
2023-05-02T01:51:31.785Z,39.88
2023-05-02T01:54:02.445Z,41.10
2023-05-02T01:56:33.503Z,37.97
2023-05-02T01:59:06.425Z,35.72
2023-05-02T02:01:36.837Z,40.90
2023-05-02T02:04:07.154Z,38.90
2023-05-02T02:06:35.100Z,41.00
2023-05-02T02:09:04.115Z,38.03
2023-05-02T02:11:36.682Z,38.22
2023-05-02T02:14:14.225Z,36.60
2023-05-02T02:16:43.462Z,33.30
2023-05-02T02:19:14.993Z,36.97
2023-05-02T02:21:44.426Z,34.15
2023-05-02T02:24:13.724Z,35.17
2023-05-02T02:26:42.584Z,35.63
2023-05-02T02:29:11.771Z,38.38
2023-05-02T02:31:40.138Z,37.17
2023-05-02T02:34:08.893Z,39.25
2023-05-02T02:36:45.896Z,35.27
2023-05-02T02:39:27.198Z,39.13
2023-05-02T02:42:04.698Z,35.58
2023-05-02T02:44:45.458Z,39.08
2023-05-02T02:47:21.583Z,39.72
2023-05-02T02:49:53.032Z,39.35
2023-05-02T02:52:29.413Z,43.25
2023-05-02T02:55:02.094Z,41.78
2023-05-02T02:57:38.705Z,44.67
2023-05-02T03:00:13.343Z,39.25
2023-05-02T03:02:44.062Z,38.38
2023-05-02T03:05:12.482Z,44.42
2023-05-02T03:07:40.801Z,43.90
2023-05-02T03:10:09.771Z,42.25
2023-05-02T03:12:37.610Z,40.95
2023-05-02T03:15:26.840Z,39.72
2023-05-02T03:17:54.659Z,40.88
2023-05-02T03:20:22.444Z,38.83
2023-05-02T03:22:50.889Z,34.67
2023-05-02T03:25:18.678Z,32.20
2023-05-02T03:27:46.621Z,35.03
2023-05-02T03:30:16.475Z,34.35
2023-05-02T03:32:44.238Z,33.88
2023-05-02T03:35:12.062Z,36.05
2023-05-02T03:37:40.350Z,38.08
2023-05-02T03:40:09.396Z,33.25
2023-05-02T03:42:39.990Z,36.00
2023-05-02T03:45:09.352Z,33.50
2023-05-02T03:47:38.643Z,30.08
2023-05-02T03:50:07.503Z,30.42
2023-05-02T03:52:35.899Z,34.97
2023-05-02T03:55:04.071Z,34.88
2023-05-02T03:57:31.928Z,33.05
2023-05-02T04:00:01.234Z,33.20
2023-05-02T04:04:58.467Z,35.10
2023-05-02T04:07:26.975Z,39.72
2023-05-02T04:09:54.765Z,37.45
2023-05-02T04:12:22.640Z,40.92
2023-05-02T04:14:51.017Z,38.95
2023-05-02T04:17:18.949Z,39.65
2023-05-02T04:19:46.750Z,42.35
2023-05-02T04:22:16.465Z,39.50
2023-05-02T04:24:44.225Z,40.00
2023-05-02T04:27:14.430Z,41.83
2023-05-02T04:29:43.589Z,40.20
2023-05-02T04:32:11.590Z,45.28
2023-05-02T04:34:39.367Z,44.25
2023-05-02T04:37:07.785Z,42.38
2023-05-02T04:39:36.958Z,42.08
2023-05-02T04:42:04.915Z,44.25
2023-05-02T04:44:33.212Z,40.70
2023-05-02T04:47:00.998Z,40.20
2023-05-02T04:49:29.099Z,38.75
2023-05-02T04:51:57.444Z,42.25
2023-05-02T04:54:25.206Z,42.72
2023-05-02T04:56:54.416Z,41.92
2023-05-02T04:59:22.739Z,43.92
2023-05-02T05:01:50.724Z,46.58
2023-05-02T05:04:18.580Z,42.55
2023-05-02T05:06:47.983Z,41.22
2023-05-02T05:09:15.862Z,41.42
2023-05-02T05:11:46.060Z,45.97
2023-05-02T05:14:15.717Z,46.88
2023-05-02T05:19:12.668Z,46.72
2023-05-02T05:21:41.085Z,45.60
2023-05-02T05:24:09.010Z,48.67
2023-05-02T05:26:36.772Z,48.72
2023-05-02T05:29:05.110Z,50.38
2023-05-02T05:31:34.320Z,46.30
2023-05-02T05:34:03.114Z,53.35
2023-05-02T05:36:32.022Z,50.85
2023-05-02T05:38:59.800Z,47.42
2023-05-02T05:41:27.776Z,45.92
2023-05-02T05:43:56.745Z,53.33
2023-05-02T05:46:24.548Z,52.35
2023-05-02T05:48:53.757Z,45.80
2023-05-02T05:51:22.092Z,49.58
2023-05-02T05:53:49.881Z,47.70
2023-05-02T05:56:18.241Z,48.72
2023-05-02T05:58:46.519Z,48.13
2023-05-02T06:01:14.482Z,48.75
2023-05-02T06:03:42.310Z,42.33
2023-05-02T06:06:12.212Z,45.45
2023-05-02T06:08:40.263Z,40.03
2023-05-02T06:11:10.634Z,38.83
2023-05-02T06:13:39.117Z,44.10
2023-05-02T06:16:07.569Z,46.55
2023-05-02T06:18:35.508Z,40.53
2023-05-02T06:21:07.335Z,42.72
2023-05-02T06:23:36.902Z,42.90
2023-05-02T06:26:05.544Z,42.05
2023-05-02T06:28:34.192Z,40.63
2023-05-02T06:31:03.350Z,43.92
2023-05-02T06:33:32.272Z,37.05
2023-05-02T06:36:02.293Z,44.55
2023-05-02T06:38:30.429Z,40.72
2023-05-02T06:40:59.576Z,42.17
2023-05-02T06:43:27.959Z,35.05
2023-05-02T06:45:56.378Z,37.22
2023-05-02T06:48:24.333Z,36.15
2023-05-02T06:50:54.426Z,33.47
2023-05-02T06:53:22.360Z,38.35
2023-05-02T06:55:50.845Z,34.20
2023-05-02T06:58:20.296Z,33.17
2023-05-02T07:00:48.734Z,33.38
2023-05-02T07:03:16.670Z,32.40
2023-05-02T07:05:45.125Z,33.72
2023-05-02T07:08:12.885Z,29.40
2023-05-02T07:10:40.750Z,27.10
2023-05-02T07:13:08.999Z,22.95
2023-05-02T07:15:38.257Z,24.38
2023-05-02T07:18:06.354Z,22.98
2023-05-02T07:20:34.720Z,19.23
2023-05-02T07:23:02.495Z,24.48
2023-05-02T07:25:30.323Z,20.08
2023-05-02T07:27:58.576Z,24.55
2023-05-02T07:30:26.377Z,21.30
2023-05-02T07:32:55.560Z,22.63
2023-05-02T07:35:23.998Z,23.85
2023-05-02T07:37:51.886Z,15.88
2023-05-02T07:40:20.006Z,18.75
2023-05-02T07:42:48.291Z,16.88
2023-05-02T07:45:16.135Z,20.63
2023-05-02T07:47:43.995Z,21.73
2023-05-02T07:50:14.158Z,27.45
2023-05-02T07:52:42.027Z,27.13
2023-05-02T07:55:10.715Z,26.20
2023-05-02T07:57:39.056Z,26.33
2023-05-02T08:00:10.290Z,22.58
2023-05-02T08:02:38.266Z,24.10
2023-05-02T08:05:08.021Z,24.23
2023-05-02T08:07:37.569Z,24.48
2023-05-02T08:10:05.833Z,20.85
2023-05-02T08:12:34.711Z,23.70
2023-05-02T08:15:06.443Z,23.10
2023-05-02T08:17:34.776Z,20.27
2023-05-02T08:20:02.997Z,22.10
2023-05-02T08:22:31.425Z,23.00
2023-05-02T08:25:01.134Z,17.80
2023-05-02T08:27:29.105Z,18.20
2023-05-02T08:29:58.673Z,21.55
2023-05-02T08:32:30.353Z,18.02
2023-05-02T08:37:25.853Z,13.18
2023-05-02T08:39:54.984Z,12.57
2023-05-02T08:42:25.087Z,13.93
2023-05-02T08:44:53.262Z,11.43
2023-05-02T08:47:22.645Z,11.15
2023-05-02T08:49:52.504Z,14.90
2023-05-02T08:52:22.248Z,10.77
2023-05-02T08:54:52.087Z,8.00
2023-05-02T08:57:19.981Z,9.38
2023-05-02T08:59:49.912Z,10.65
2023-05-02T09:02:29.613Z,7.18
2023-05-02T09:05:04.538Z,8.25
2023-05-02T09:07:32.997Z,6.35
2023-05-02T09:10:00.830Z,9.55
2023-05-02T09:12:28.979Z,7.55
2023-05-02T09:15:17.004Z,6.88
2023-05-02T09:17:48.907Z,6.30
2023-05-02T09:20:18.465Z,6.72
2023-05-02T09:22:51.334Z,6.20
2023-05-02T09:25:21.148Z,8.80
2023-05-02T09:27:54.257Z,8.43
2023-05-02T09:30:26.067Z,7.72
2023-05-02T09:32:55.875Z,9.77
2023-05-02T09:35:27.515Z,7.50
2023-05-02T09:37:55.878Z,7.85
2023-05-02T09:40:25.250Z,6.60
2023-05-02T09:42:54.426Z,9.55
2023-05-02T09:45:25.307Z,9.90
2023-05-02T09:47:54.262Z,12.00
2023-05-02T09:50:36.412Z,11.05
2023-05-02T09:53:06.196Z,9.75
2023-05-02T09:55:34.495Z,8.23
2023-05-02T09:58:03.445Z,10.80
2023-05-02T10:00:51.634Z,8.85
2023-05-02T10:03:21.705Z,8.77
2023-05-02T10:05:49.863Z,10.43
2023-05-02T10:08:20.209Z,11.63
2023-05-02T10:10:53.037Z,9.80
2023-05-02T10:13:22.648Z,10.65
2023-05-02T10:18:29.439Z,8.18
2023-05-02T10:21:00.570Z,9.50
2023-05-02T10:23:30.555Z,9.88
2023-05-02T10:26:03.662Z,5.90
2023-05-02T10:28:31.652Z,8.10
2023-05-02T10:31:04.164Z,7.28
2023-05-02T10:33:35.350Z,6.38
2023-05-02T10:36:04.046Z,9.15
2023-05-02T10:38:32.512Z,8.77
2023-05-02T10:41:04.568Z,6.32
2023-05-02T10:43:35.492Z,7.32
2023-05-02T10:46:05.638Z,6.45
2023-05-02T10:48:33.489Z,7.00
2023-05-02T10:51:02.267Z,8.35
2023-05-02T10:53:32.856Z,8.07
2023-05-02T10:56:17.923Z,9.95
2023-05-02T10:58:49.482Z,7.15
2023-05-02T11:01:39.847Z,8.95
2023-05-02T11:04:10.269Z,10.05
2023-05-02T11:06:59.033Z,8.63
2023-05-02T11:09:36.358Z,7.97
2023-05-02T11:12:05.938Z,6.65
2023-05-02T11:17:19.019Z,12.55
2023-05-02T11:20:27.647Z,5.35
2023-05-02T11:23:00.910Z,8.13
2023-05-02T11:25:37.733Z,8.00
2023-05-02T11:28:08.236Z,9.20
2023-05-02T11:30:49.138Z,7.00
2023-05-02T11:33:20.247Z,8.68
2023-05-02T11:35:51.629Z,7.43
2023-05-02T11:38:22.296Z,7.68
2023-05-02T11:40:59.089Z,9.15
2023-05-02T11:43:31.483Z,9.45
2023-05-02T11:46:01.081Z,10.82
2023-05-02T11:48:31.755Z,8.65
2023-05-02T11:51:04.098Z,7.28
2023-05-02T11:53:32.836Z,8.18
2023-05-02T11:56:01.721Z,10.88
2023-05-02T11:58:33.014Z,13.43
2023-05-02T12:01:13.075Z,11.25
2023-05-02T12:03:43.249Z,11.00
2023-05-02T12:06:12.869Z,7.00
2023-05-02T12:08:41.932Z,8.48
2023-05-02T12:11:11.053Z,10.13
2023-05-02T12:13:46.899Z,10.75
2023-05-02T12:16:15.707Z,16.17
2023-05-02T12:18:45.293Z,9.05
2023-05-02T12:21:13.378Z,16.92
2023-05-02T12:23:42.699Z,11.43
2023-05-02T12:26:21.296Z,12.02
2023-05-02T12:28:51.018Z,7.43
2023-05-02T12:31:19.370Z,10.70
2023-05-02T12:33:51.245Z,9.00
2023-05-02T12:36:19.742Z,11.10
2023-05-02T12:38:54.346Z,9.15
2023-05-02T12:41:33.070Z,10.48
2023-05-02T12:44:01.911Z,11.05
2023-05-02T12:46:30.032Z,9.33
2023-05-02T12:49:07.412Z,9.80
2023-05-02T12:51:36.556Z,15.50
2023-05-02T12:54:04.846Z,11.15
2023-05-02T12:56:40.302Z,10.13
2023-05-02T12:59:08.328Z,12.55
2023-05-02T13:01:36.532Z,9.68
2023-05-02T13:04:07.211Z,8.05
2023-05-02T13:06:38.215Z,7.05
2023-05-02T13:09:06.843Z,8.40
2023-05-02T13:11:34.656Z,8.60
2023-05-02T13:14:05.220Z,7.25
2023-05-02T13:16:34.320Z,5.60
2023-05-02T13:19:02.133Z,7.20
2023-05-02T13:21:31.621Z,10.43
2023-05-02T13:24:00.280Z,9.90
2023-05-02T13:26:28.430Z,7.93
2023-05-02T13:28:56.569Z,9.98
2023-05-02T13:31:24.703Z,7.32
2023-05-02T13:33:52.582Z,7.63
2023-05-02T13:36:20.395Z,8.00
2023-05-02T13:38:50.290Z,9.40
2023-05-02T13:41:19.067Z,7.60
2023-05-02T13:43:47.113Z,9.20
2023-05-02T13:46:16.045Z,7.32
2023-05-02T13:48:43.973Z,9.27
2023-05-02T13:51:12.023Z,7.88
2023-05-02T13:53:40.479Z,11.38
2023-05-02T13:56:09.763Z,7.78
2023-05-02T13:58:37.646Z,7.78
2023-05-02T14:01:05.965Z,9.90
2023-05-02T14:03:33.932Z,14.80
2023-05-02T14:06:01.897Z,8.55
2023-05-02T14:08:29.928Z,10.93
2023-05-02T14:10:57.941Z,10.65
2023-05-02T14:13:27.513Z,6.95
2023-05-02T14:18:23.543Z,9.18
2023-05-02T14:20:51.410Z,9.13
2023-05-02T14:23:19.688Z,10.75
2023-05-02T14:25:48.786Z,9.38
2023-05-02T14:28:16.553Z,7.80
2023-05-02T14:30:46.188Z,9.20
2023-05-02T14:33:14.121Z,7.38
2023-05-02T14:35:42.186Z,8.20
2023-05-02T14:38:10.317Z,7.25
2023-05-02T14:40:38.113Z,7.82
2023-05-02T14:43:06.502Z,9.77
2023-05-02T14:45:34.722Z,8.25
2023-05-02T14:48:04.289Z,7.32
2023-05-02T14:52:59.893Z,7.38
2023-05-02T14:55:27.893Z,10.25
2023-05-02T14:57:56.166Z,7.60
2023-05-02T15:00:25.228Z,8.23
2023-05-02T15:02:53.079Z,8.13
2023-05-02T15:05:22.769Z,11.45
2023-05-02T15:10:18.168Z,7.38
2023-05-02T15:12:50.989Z,12.02
2023-05-02T15:15:24.816Z,9.20
2023-05-02T15:17:53.028Z,10.13
2023-05-02T15:20:22.587Z,10.52
2023-05-02T15:22:50.388Z,8.00
2023-05-02T15:25:18.574Z,10.55
2023-05-02T15:27:46.458Z,10.48
2023-05-02T15:30:16.559Z,8.13
2023-05-02T15:32:46.149Z,12.48
2023-05-02T15:35:14.207Z,7.43
2023-05-02T15:37:43.432Z,9.77
2023-05-02T15:40:12.667Z,8.95
2023-05-02T15:42:40.654Z,10.65
2023-05-02T15:45:09.713Z,10.70
2023-05-02T15:47:38.292Z,13.68
2023-05-02T15:50:07.757Z,11.65
2023-05-02T15:52:35.663Z,14.75
2023-05-02T15:55:06.150Z,11.98
2023-05-02T15:57:33.964Z,8.48
2023-05-02T16:00:01.988Z,8.40
2023-05-02T16:02:30.612Z,15.25
2023-05-02T16:04:58.405Z,11.13
2023-05-02T16:07:26.197Z,15.77
2023-05-02T16:09:54.446Z,10.80
2023-05-02T16:12:23.635Z,10.50
2023-05-02T16:14:51.434Z,11.20
2023-05-02T16:17:19.640Z,10.68
2023-05-02T16:19:47.437Z,8.77
2023-05-02T16:22:15.393Z,13.07
2023-05-02T16:24:43.765Z,11.68
2023-05-02T16:27:11.518Z,10.70
2023-05-02T16:29:40.723Z,7.10
2023-05-02T16:32:08.515Z,11.70
2023-05-02T16:34:37.162Z,8.27
2023-05-02T16:37:05.077Z,13.10
2023-05-02T16:39:34.435Z,11.82
2023-05-02T16:42:02.825Z,11.23
2023-05-02T16:44:31.412Z,11.93
2023-05-02T16:47:01.649Z,9.43
2023-05-02T16:49:30.022Z,12.48
2023-05-02T16:51:57.825Z,8.82
2023-05-02T16:54:25.661Z,11.45
2023-05-02T16:56:53.401Z,12.55
2023-05-02T16:59:21.185Z,10.45
2023-05-02T17:01:50.502Z,11.40
2023-05-02T17:04:19.655Z,9.55
2023-05-02T17:06:47.676Z,13.73
2023-05-02T17:09:16.258Z,8.30
2023-05-02T17:11:44.330Z,9.80
2023-05-02T17:14:12.461Z,9.82
2023-05-02T17:16:41.464Z,11.20
2023-05-02T17:19:09.268Z,9.52
2023-05-02T17:21:38.490Z,7.72
2023-05-02T17:24:07.905Z,12.60
2023-05-02T17:26:35.736Z,9.18
2023-05-02T17:29:03.859Z,10.93
2023-05-02T17:31:32.177Z,9.95
2023-05-02T17:33:59.972Z,11.23
2023-05-02T17:36:27.861Z,13.00
2023-05-02T17:38:57.519Z,15.77
2023-05-02T17:43:52.991Z,15.98
2023-05-02T17:46:21.570Z,10.00
2023-05-02T17:48:49.349Z,10.97
2023-05-02T17:51:17.076Z,14.02
2023-05-02T17:53:45.066Z,9.23
2023-05-02T17:56:15.957Z,11.18
2023-05-02T17:58:43.675Z,11.82
2023-05-02T18:01:14.419Z,11.35
2023-05-02T18:03:42.621Z,11.05
2023-05-02T18:06:16.162Z,10.77
2023-05-02T18:08:44.424Z,9.38
2023-05-02T18:11:18.058Z,12.68
2023-05-02T18:13:46.714Z,11.90
2023-05-02T18:16:14.843Z,11.20
2023-05-02T18:18:43.186Z,10.43
2023-05-02T18:21:11.528Z,13.70
2023-05-02T18:23:40.160Z,9.18
2023-05-02T18:26:14.516Z,14.57
2023-05-02T18:28:45.156Z,14.63
2023-05-02T18:31:19.684Z,8.52
2023-05-02T18:33:47.698Z,11.98
2023-05-02T18:36:19.143Z,15.88
2023-05-02T18:38:47.682Z,11.93
2023-05-02T18:41:17.455Z,11.90
2023-05-02T18:43:46.577Z,14.43
2023-05-02T18:46:14.971Z,12.52
2023-05-02T18:48:43.452Z,10.05
2023-05-02T18:51:11.443Z,12.65
2023-05-02T18:53:39.854Z,9.77
2023-05-02T18:56:13.309Z,11.35
2023-05-02T18:58:41.621Z,12.10
2023-05-02T19:01:14.880Z,11.70
2023-05-02T19:03:44.008Z,8.57
2023-05-02T19:06:12.215Z,11.35
2023-05-02T19:08:40.937Z,9.18
2023-05-02T19:11:09.593Z,12.00
2023-05-02T19:13:37.449Z,12.95
2023-05-02T19:16:05.455Z,11.95
2023-05-02T19:18:35.150Z,11.25
2023-05-02T19:23:38.698Z,13.25
2023-05-02T19:26:11.739Z,13.82
2023-05-02T19:28:40.001Z,15.50
2023-05-02T19:31:11.789Z,16.85
2023-05-02T19:33:49.855Z,14.73
2023-05-02T19:36:18.526Z,15.05
2023-05-02T19:38:48.740Z,15.70
2023-05-02T19:41:17.530Z,18.85
2023-05-02T19:43:45.691Z,11.05
2023-05-02T19:46:15.181Z,13.57
2023-05-02T19:48:44.787Z,9.88
2023-05-02T19:51:12.673Z,11.63
2023-05-02T19:53:40.475Z,15.02
2023-05-02T19:56:08.906Z,12.57
2023-05-02T19:58:36.699Z,15.02
2023-05-02T20:01:04.753Z,14.30
2023-05-02T20:03:34.891Z,9.55
2023-05-02T20:06:04.591Z,13.35
2023-05-02T20:08:32.397Z,8.77
2023-05-02T20:11:00.715Z,12.32
2023-05-02T20:13:28.617Z,9.50
2023-05-02T20:15:56.393Z,8.63
2023-05-02T20:18:24.746Z,12.05
2023-05-02T20:20:52.555Z,11.75
2023-05-02T20:23:21.703Z,12.38
2023-05-02T20:25:49.694Z,13.23
2023-05-02T20:28:17.505Z,10.02
2023-05-02T20:30:45.345Z,13.30
2023-05-02T20:33:16.631Z,13.15
2023-05-02T20:35:45.115Z,12.60
2023-05-02T20:38:12.958Z,13.52
2023-05-02T20:40:42.841Z,14.85
2023-05-02T20:43:11.777Z,11.68
2023-05-02T20:45:40.096Z,16.25
2023-05-02T20:48:08.228Z,10.50
2023-05-02T20:50:36.223Z,12.63
2023-05-02T20:53:04.508Z,13.30
2023-05-02T20:55:32.472Z,10.38
2023-05-02T20:58:01.602Z,9.77
2023-05-02T21:00:29.357Z,10.52
2023-05-02T21:02:57.340Z,10.35
2023-05-02T21:05:25.490Z,10.85
2023-05-02T21:07:53.470Z,8.57
2023-05-02T21:10:22.649Z,14.05
2023-05-02T21:12:50.430Z,9.35
2023-05-02T21:15:19.715Z,12.25
2023-05-02T21:17:47.682Z,7.80
2023-05-02T21:20:15.485Z,9.52
2023-05-02T21:22:43.318Z,10.65
2023-05-02T21:25:12.232Z,11.20
2023-05-02T21:27:40.105Z,12.38
2023-05-02T21:30:09.178Z,10.15
2023-05-02T21:32:39.058Z,10.60
2023-05-02T21:35:07.683Z,11.25
2023-05-02T21:37:35.480Z,8.25
2023-05-02T21:40:04.625Z,9.23
2023-05-02T21:42:32.581Z,12.35
2023-05-02T21:45:00.378Z,11.30
2023-05-02T21:47:28.791Z,12.82
2023-05-02T21:49:58.167Z,9.13
2023-05-02T21:52:26.031Z,8.75
2023-05-02T21:54:54.541Z,13.88
2023-05-02T21:57:22.338Z,9.88
2023-05-02T21:59:50.146Z,9.68
2023-05-02T22:02:18.582Z,8.45
2023-05-02T22:04:48.173Z,9.60
2023-05-02T22:07:17.454Z,9.70
2023-05-02T22:09:45.419Z,10.35
2023-05-02T22:12:13.191Z,11.18
2023-05-02T22:14:45.043Z,11.40
2023-05-02T22:17:14.210Z,15.52
2023-05-02T22:19:41.946Z,11.20
2023-05-02T22:22:09.720Z,8.73
2023-05-02T22:24:39.347Z,9.35
2023-05-02T22:29:34.906Z,9.52
2023-05-02T22:32:03.241Z,12.05
2023-05-02T22:34:31.167Z,10.10
2023-05-02T22:36:58.928Z,10.43
2023-05-02T22:39:28.433Z,9.07
2023-05-02T22:41:59.543Z,10.77
2023-05-02T22:44:27.368Z,10.73
2023-05-02T22:46:55.729Z,8.88
2023-05-02T22:49:23.472Z,12.95
2023-05-02T22:51:52.123Z,9.23
2023-05-02T22:54:21.832Z,6.38
2023-05-02T22:59:18.838Z,8.95
2023-05-02T23:01:47.186Z,9.00
2023-05-02T23:04:15.040Z,12.48
2023-05-02T23:06:42.850Z,11.10
2023-05-02T23:09:12.057Z,8.95
2023-05-02T23:11:39.957Z,6.57
2023-05-02T23:14:07.730Z,7.15
2023-05-02T23:16:37.405Z,10.75
2023-05-02T23:21:32.770Z,7.22
2023-05-02T23:24:00.821Z,8.18
2023-05-02T23:26:28.565Z,10.18
2023-05-02T23:28:56.329Z,8.20
2023-05-02T23:31:24.743Z,9.45
2023-05-02T23:33:54.149Z,6.38
2023-05-02T23:36:22.367Z,8.13
2023-05-02T23:38:52.090Z,7.43
2023-05-02T23:43:47.445Z,6.13
2023-05-02T23:46:15.618Z,8.73
2023-05-02T23:48:43.410Z,10.90
2023-05-02T23:51:12.896Z,8.32
2023-05-02T23:53:41.228Z,10.02
2023-05-02T23:56:09.752Z,10.80
2023-05-02T23:58:37.504Z,7.63
